sensor_id;sensor_type;location;lat;lon;timestamp;pressure;altitude;pressure_sealevel;temperature;humidity
14041;BME280;7095;51.388;6.196;2022-08-19T00:00:09;53415.59;;;-145.32;100.00
14041;BME280;7095;51.388;6.196;2022-08-19T00:02:39;53427.53;;;-145.32;100.00
14041;BME280;7095;51.388;6.196;2022-08-19T00:05:17;53395.72;;;-145.32;100.00
14041;BME280;7095;51.388;6.196;2022-08-19T00:07:46;53419.59;;;-145.32;100.00
14041;BME280;7095;51.388;6.196;2022-08-19T00:10:17;53449.41;;;-145.32;100.00
14041;BME280;7095;51.388;6.196;2022-08-19T00:12:46;53403.69;;;-145.32;100.00
14041;BME280;7095;51.388;6.196;2022-08-19T00:15:18;53419.59;;;-145.32;100.00
14041;BME280;7095;51.388;6.196;2022-08-19T00:17:47;53407.66;;;-145.32;100.00
14041;BME280;7095;51.388;6.196;2022-08-19T00:20:20;53435.47;;;-145.32;100.00
14041;BME280;7095;51.388;6.196;2022-08-19T00:22:50;53423.56;;;-145.32;100.00
14041;BME280;7095;51.388;6.196;2022-08-19T00:25:20;53423.56;;;-145.32;100.00
14041;BME280;7095;51.388;6.196;2022-08-19T00:27:56;53431.50;;;-145.32;100.00
14041;BME280;7095;51.388;6.196;2022-08-19T00:30:30;53441.44;;;-145.32;100.00
14041;BME280;7095;51.388;6.196;2022-08-19T00:32:58;53443.44;;;-145.32;100.00
14041;BME280;7095;51.388;6.196;2022-08-19T00:35:27;53421.56;;;-145.32;100.00
14041;BME280;7095;51.388;6.196;2022-08-19T00:37:56;53435.47;;;-145.32;100.00
14041;BME280;7095;51.388;6.196;2022-08-19T00:40:25;53395.72;;;-145.32;100.00
14041;BME280;7095;51.388;6.196;2022-08-19T00:42:54;53439.47;;;-145.32;100.00
14041;BME280;7095;51.388;6.196;2022-08-19T00:45:26;53441.44;;;-145.32;100.00
14041;BME280;7095;51.388;6.196;2022-08-19T00:48:00;53447.41;;;-145.32;100.00
14041;BME280;7095;51.388;6.196;2022-08-19T00:50:41;53415.59;;;-145.32;100.00
14041;BME280;7095;51.388;6.196;2022-08-19T00:53:20;53395.72;;;-145.32;100.00
14041;BME280;7095;51.388;6.196;2022-08-19T00:55:51;53445.44;;;-145.32;100.00
14041;BME280;7095;51.388;6.196;2022-08-19T00:58:27;53437.47;;;-145.32;100.00
14041;BME280;7095;51.388;6.196;2022-08-19T01:00:57;53439.47;;;-145.32;100.00
14041;BME280;7095;51.388;6.196;2022-08-19T01:03:27;53433.50;;;-145.32;100.00
14041;BME280;7095;51.388;6.196;2022-08-19T01:06:16;53453.38;;;-145.32;100.00
14041;BME280;7095;51.388;6.196;2022-08-19T01:08:46;53443.44;;;-145.32;100.00
14041;BME280;7095;51.388;6.196;2022-08-19T01:11:16;53467.28;;;-145.32;100.00
14041;BME280;7095;51.388;6.196;2022-08-19T01:13:46;53433.50;;;-145.32;100.00
14041;BME280;7095;51.388;6.196;2022-08-19T01:16:19;53449.41;;;-145.32;100.00
14041;BME280;7095;51.388;6.196;2022-08-19T01:18:50;53463.31;;;-145.32;100.00
14041;BME280;7095;51.388;6.196;2022-08-19T01:21:23;53453.38;;;-145.32;100.00
14041;BME280;7095;51.388;6.196;2022-08-19T01:23:56;53449.41;;;-145.32;100.00
14041;BME280;7095;51.388;6.196;2022-08-19T01:26:26;53457.34;;;-145.32;100.00
14041;BME280;7095;51.388;6.196;2022-08-19T01:28:58;53457.34;;;-145.32;100.00
14041;BME280;7095;51.388;6.196;2022-08-19T01:31:31;53465.31;;;-145.32;100.00
14041;BME280;7095;51.388;6.196;2022-08-19T01:34:04;53493.13;;;-145.32;100.00
14041;BME280;7095;51.388;6.196;2022-08-19T01:36:36;53455.38;;;-145.32;100.00
14041;BME280;7095;51.388;6.196;2022-08-19T01:39:14;53475.25;;;-145.32;100.00
14041;BME280;7095;51.388;6.196;2022-08-19T01:41:43;53467.28;;;-145.32;100.00
14041;BME280;7095;51.388;6.196;2022-08-19T01:44:12;53485.19;;;-145.32;100.00
14041;BME280;7095;51.388;6.196;2022-08-19T01:46:46;53491.16;;;-145.32;100.00
14041;BME280;7095;51.388;6.196;2022-08-19T01:49:17;53463.31;;;-145.32;100.00
14041;BME280;7095;51.388;6.196;2022-08-19T01:51:47;53463.31;;;-145.32;100.00
14041;BME280;7095;51.388;6.196;2022-08-19T01:54:19;53463.31;;;-145.32;100.00
14041;BME280;7095;51.388;6.196;2022-08-19T01:56:59;53459.34;;;-145.32;100.00
14041;BME280;7095;51.388;6.196;2022-08-19T01:59:30;53455.38;;;-145.32;100.00
14041;BME280;7095;51.388;6.196;2022-08-19T02:02:00;53483.19;;;-145.32;100.00
14041;BME280;7095;51.388;6.196;2022-08-19T02:04:28;53481.22;;;-145.32;100.00
14041;BME280;7095;51.388;6.196;2022-08-19T02:06:57;53479.22;;;-145.32;100.00
14041;BME280;7095;51.388;6.196;2022-08-19T02:09:27;53471.28;;;-145.32;100.00
14041;BME280;7095;51.388;6.196;2022-08-19T02:11:56;53467.28;;;-145.32;100.00
14041;BME280;7095;51.388;6.196;2022-08-19T02:14:24;53485.19;;;-145.32;100.00
14041;BME280;7095;51.388;6.196;2022-08-19T02:16:53;53495.13;;;-145.32;100.00
14041;BME280;7095;51.388;6.196;2022-08-19T02:19:22;53495.13;;;-145.32;100.00
14041;BME280;7095;51.388;6.196;2022-08-19T02:21:51;53493.13;;;-145.32;100.00
14041;BME280;7095;51.388;6.196;2022-08-19T02:24:20;53465.31;;;-145.32;100.00
14041;BME280;7095;51.388;6.196;2022-08-19T02:26:50;53485.19;;;-145.32;100.00
14041;BME280;7095;51.388;6.196;2022-08-19T02:29:19;53499.09;;;-145.32;100.00
14041;BME280;7095;51.388;6.196;2022-08-19T02:31:48;53495.13;;;-145.32;100.00
14041;BME280;7095;51.388;6.196;2022-08-19T02:34:17;53471.28;;;-145.32;100.00
14041;BME280;7095;51.388;6.196;2022-08-19T02:36:45;53518.97;;;-145.32;100.00
14041;BME280;7095;51.388;6.196;2022-08-19T02:39:18;53513.03;;;-145.32;100.00
14041;BME280;7095;51.388;6.196;2022-08-19T02:41:46;53489.16;;;-145.32;100.00
14041;BME280;7095;51.388;6.196;2022-08-19T02:44:17;53479.22;;;-145.32;100.00
14041;BME280;7095;51.388;6.196;2022-08-19T02:46:57;53499.09;;;-145.32;100.00
14041;BME280;7095;51.388;6.196;2022-08-19T02:49:26;53497.13;;;-145.32;100.00
14041;BME280;7095;51.388;6.196;2022-08-19T02:51:54;53475.25;;;-145.32;100.00
14041;BME280;7095;51.388;6.196;2022-08-19T02:54:23;53507.06;;;-145.32;100.00
14041;BME280;7095;51.388;6.196;2022-08-19T02:56:51;53501.09;;;-145.32;100.00
14041;BME280;7095;51.388;6.196;2022-08-19T02:59:22;53489.16;;;-145.32;100.00
14041;BME280;7095;51.388;6.196;2022-08-19T03:01:51;53487.19;;;-145.32;100.00
14041;BME280;7095;51.388;6.196;2022-08-19T03:04:20;53493.13;;;-145.32;100.00
14041;BME280;7095;51.388;6.196;2022-08-19T03:06:50;53497.13;;;-145.32;100.00
14041;BME280;7095;51.388;6.196;2022-08-19T03:09:20;53505.06;;;-145.32;100.00
14041;BME280;7095;51.388;6.196;2022-08-19T03:11:48;53483.19;;;-145.32;100.00
14041;BME280;7095;51.388;6.196;2022-08-19T03:14:18;53495.13;;;-145.32;100.00
14041;BME280;7095;51.388;6.196;2022-08-19T03:16:50;53517.00;;;-145.32;100.00
14041;BME280;7095;51.388;6.196;2022-08-19T03:19:19;53495.13;;;-145.32;100.00
14041;BME280;7095;51.388;6.196;2022-08-19T03:21:50;53499.09;;;-145.32;100.00
14041;BME280;7095;51.388;6.196;2022-08-19T03:24:19;53503.06;;;-145.32;100.00
14041;BME280;7095;51.388;6.196;2022-08-19T03:26:49;53520.97;;;-145.32;100.00
14041;BME280;7095;51.388;6.196;2022-08-19T03:29:19;53503.06;;;-145.32;100.00
14041;BME280;7095;51.388;6.196;2022-08-19T03:31:58;53509.03;;;-145.32;100.00
14041;BME280;7095;51.388;6.196;2022-08-19T03:34:33;53501.09;;;-145.32;100.00
14041;BME280;7095;51.388;6.196;2022-08-19T03:37:06;53499.09;;;-145.32;100.00
14041;BME280;7095;51.388;6.196;2022-08-19T03:39:36;53497.13;;;-145.32;100.00
14041;BME280;7095;51.388;6.196;2022-08-19T03:42:05;53505.06;;;-145.32;100.00
14041;BME280;7095;51.388;6.196;2022-08-19T03:44:53;53518.97;;;-145.32;100.00
14041;BME280;7095;51.388;6.196;2022-08-19T03:47:24;53497.13;;;-145.32;100.00
14041;BME280;7095;51.388;6.196;2022-08-19T03:49:52;53511.03;;;-145.32;100.00
14041;BME280;7095;51.388;6.196;2022-08-19T03:52:24;53515.00;;;-145.32;100.00
14041;BME280;7095;51.388;6.196;2022-08-19T03:54:53;53522.97;;;-145.32;100.00
14041;BME280;7095;51.388;6.196;2022-08-19T03:57:21;53546.81;;;-145.32;100.00
14041;BME280;7095;51.388;6.196;2022-08-19T03:59:58;53518.97;;;-145.32;100.00
14041;BME280;7095;51.388;6.196;2022-08-19T04:02:40;53572.66;;;-145.32;100.00
14041;BME280;7095;51.388;6.196;2022-08-19T04:05:27;53546.81;;;-145.32;100.00
14041;BME280;7095;51.388;6.196;2022-08-19T04:07:56;53550.78;;;-145.32;100.00
14041;BME280;7095;51.388;6.196;2022-08-19T04:10:26;53626.34;;;-145.32;100.00
14041;BME280;7095;51.388;6.196;2022-08-19T04:12:55;53701.88;;;-145.32;100.00
14041;BME280;7095;51.388;6.196;2022-08-19T04:15:24;53646.22;;;-145.32;100.00
14041;BME280;7095;51.388;6.196;2022-08-19T04:17:54;53713.81;;;-145.32;100.00
14041;BME280;7095;51.388;6.196;2022-08-19T04:20:23;53783.41;;;-145.32;100.00
14041;BME280;7095;51.388;6.196;2022-08-19T04:22:52;53751.59;;;-145.32;100.00
14041;BME280;7095;51.388;6.196;2022-08-19T04:25:20;53851.00;;;-145.32;100.00
14041;BME280;7095;51.388;6.196;2022-08-19T04:27:49;53797.31;;;-145.32;100.00
14041;BME280;7095;51.388;6.196;2022-08-19T04:30:17;53783.41;;;-145.32;100.00
14041;BME280;7095;51.388;6.196;2022-08-19T04:32:48;53880.84;;;-145.32;100.00
14041;BME280;7095;51.388;6.196;2022-08-19T04:35:19;54155.22;;;-145.32;100.00
14041;BME280;7095;51.388;6.196;2022-08-19T04:37:51;54191.03;;;-145.32;100.00
14041;BME280;7095;51.388;6.196;2022-08-19T04:40:19;54139.31;;;-145.32;100.00
14041;BME280;7095;51.388;6.196;2022-08-19T04:43:05;54242.72;;;-145.32;100.00
14041;BME280;7095;51.388;6.196;2022-08-19T04:45:36;54304.38;;;-145.32;100.00
14041;BME280;7095;51.388;6.196;2022-08-19T04:48:10;54391.84;;;-145.32;100.00
14041;BME280;7095;51.388;6.196;2022-08-19T04:50:56;54431.63;;;-145.32;100.00
14041;BME280;7095;51.388;6.196;2022-08-19T04:53:26;54507.19;;;-145.32;100.00
14041;BME280;7095;51.388;6.196;2022-08-19T04:56:06;54564.88;;;-145.32;100.00
14041;BME280;7095;51.388;6.196;2022-08-19T04:58:36;54572.81;;;-145.32;100.00
14041;BME280;7095;51.388;6.196;2022-08-19T05:01:05;54620.56;;;-145.32;100.00
14041;BME280;7095;51.388;6.196;2022-08-19T05:03:36;54690.16;;;-145.32;100.00
14041;BME280;7095;51.388;6.196;2022-08-19T05:06:10;54692.16;;;-145.32;100.00
14041;BME280;7095;51.388;6.196;2022-08-19T05:08:41;54789.59;;;-145.32;100.00
14041;BME280;7095;51.388;6.196;2022-08-19T05:11:12;54799.53;;;-145.32;100.00
14041;BME280;7095;51.388;6.196;2022-08-19T05:13:41;54833.34;;;-145.32;100.00
14041;BME280;7095;51.388;6.196;2022-08-19T05:16:12;54839.31;;;-145.32;100.00
14041;BME280;7095;51.388;6.196;2022-08-19T05:18:41;54972.56;;;-145.32;100.00
14041;BME280;7095;51.388;6.196;2022-08-19T05:21:30;55000.41;;;-145.32;100.00
14041;BME280;7095;51.388;6.196;2022-08-19T05:24:17;55125.72;;;-145.32;100.00
14041;BME280;7095;51.388;6.196;2022-08-19T05:26:48;55189.38;;;-145.32;100.00
14041;BME280;7095;51.388;6.196;2022-08-19T05:29:19;55360.44;;;-145.32;100.00
14041;BME280;7095;51.388;6.196;2022-08-19T05:31:49;55428.06;;;-145.32;100.00
14041;BME280;7095;51.388;6.196;2022-08-19T05:34:19;55406.19;;;-145.32;100.00
14041;BME280;7095;51.388;6.196;2022-08-19T05:36:52;55340.56;;;-145.32;100.00
14041;BME280;7095;51.388;6.196;2022-08-19T05:39:26;55541.47;;;-145.32;100.00
14041;BME280;7095;51.388;6.196;2022-08-19T05:41:57;55808.03;;;-145.32;100.00
14041;BME280;7095;51.388;6.196;2022-08-19T05:44:28;55861.75;;;-145.32;100.00
14041;BME280;7095;51.388;6.196;2022-08-19T05:46:59;55869.69;;;-145.32;100.00
14041;BME280;7095;51.388;6.196;2022-08-19T05:49:31;55845.81;;;-145.32;100.00
14041;BME280;7095;51.388;6.196;2022-08-19T05:52:03;55833.88;;;-145.32;100.00
14041;BME280;7095;51.388;6.196;2022-08-19T05:54:32;55817.97;;;-145.32;100.00
14041;BME280;7095;51.388;6.196;2022-08-19T05:57:02;55835.88;;;-145.32;100.00
14041;BME280;7095;51.388;6.196;2022-08-19T05:59:31;55971.16;;;-145.32;100.00
14041;BME280;7095;51.388;6.196;2022-08-19T06:02:01;56170.13;;;-145.32;100.00
14041;BME280;7095;51.388;6.196;2022-08-19T06:04:31;56074.63;;;-145.32;100.00
14041;BME280;7095;51.388;6.196;2022-08-19T06:06:59;56084.56;;;-145.32;100.00
14041;BME280;7095;51.388;6.196;2022-08-19T06:09:40;56273.59;;;-145.32;100.00
14041;BME280;7095;51.388;6.196;2022-08-19T06:12:25;56394.97;;;-145.32;100.00
14041;BME280;7095;51.388;6.196;2022-08-19T06:14:59;56267.63;;;-145.32;100.00
14041;BME280;7095;51.388;6.196;2022-08-19T06:17:28;56470.56;;;-145.32;100.00
14041;BME280;7095;51.388;6.196;2022-08-19T06:19:58;56371.09;;;-145.32;100.00
14041;BME280;7095;51.388;6.196;2022-08-19T06:22:27;56233.78;;;-145.32;100.00
14041;BME280;7095;51.388;6.196;2022-08-19T06:25:00;56255.69;;;-145.32;100.00
14041;BME280;7095;51.388;6.196;2022-08-19T06:27:29;56128.34;;;-145.32;100.00
14041;BME280;7095;51.388;6.196;2022-08-19T06:30:00;55841.84;;;-145.32;100.00
14041;BME280;7095;51.388;6.196;2022-08-19T06:32:29;55652.84;;;-145.32;100.00
14041;BME280;7095;51.388;6.196;2022-08-19T06:34:58;55786.16;;;-145.32;100.00
14041;BME280;7095;51.388;6.196;2022-08-19T06:37:27;55400.22;;;-145.32;100.00
14041;BME280;7095;51.388;6.196;2022-08-19T06:39:55;55155.56;;;-145.32;100.00
14041;BME280;7095;51.388;6.196;2022-08-19T06:42:25;55205.28;;;-145.32;100.00
14041;BME280;7095;51.388;6.196;2022-08-19T06:44:54;54996.44;;;-145.32;100.00
14041;BME280;7095;51.388;6.196;2022-08-19T06:47:23;54895.00;;;-145.32;100.00
14041;BME280;7095;51.388;6.196;2022-08-19T06:49:55;54755.78;;;-145.32;100.00
14041;BME280;7095;51.388;6.196;2022-08-19T06:52:30;54716.00;;;-145.32;100.00
14041;BME280;7095;51.388;6.196;2022-08-19T06:55:00;54712.03;;;-145.32;100.00
14041;BME280;7095;51.388;6.196;2022-08-19T06:57:34;54529.06;;;-145.32;100.00
14041;BME280;7095;51.388;6.196;2022-08-19T07:00:04;54473.41;;;-145.32;100.00
14041;BME280;7095;51.388;6.196;2022-08-19T07:02:47;54302.38;;;-145.32;100.00
14041;BME280;7095;51.388;6.196;2022-08-19T07:05:25;54145.28;;;-145.32;100.00
14041;BME280;7095;51.388;6.196;2022-08-19T07:07:53;54008.09;;;-145.32;100.00
14041;BME280;7095;51.388;6.196;2022-08-19T07:10:28;53872.88;;;-145.32;100.00
14041;BME280;7095;51.388;6.196;2022-08-19T07:13:02;53868.91;;;-145.32;100.00
14041;BME280;7095;51.388;6.196;2022-08-19T07:15:30;53751.59;;;-145.32;100.00
14041;BME280;7095;51.388;6.196;2022-08-19T07:18:01;53691.94;;;-145.32;100.00
14041;BME280;7095;51.388;6.196;2022-08-19T07:20:30;53626.34;;;-145.32;100.00
14041;BME280;7095;51.388;6.196;2022-08-19T07:23:00;53592.53;;;-145.32;100.00
14041;BME280;7095;51.388;6.196;2022-08-19T07:25:33;53566.69;;;-145.32;100.00
14041;BME280;7095;51.388;6.196;2022-08-19T07:28:03;53542.84;;;-145.32;100.00
14041;BME280;7095;51.388;6.196;2022-08-19T07:30:46;53564.72;;;-145.32;100.00
14041;BME280;7095;51.388;6.196;2022-08-19T07:33:18;53513.03;;;-145.32;100.00
14041;BME280;7095;51.388;6.196;2022-08-19T07:35:47;53534.88;;;-145.32;100.00
14041;BME280;7095;51.388;6.196;2022-08-19T07:38:16;53497.13;;;-145.32;100.00
14041;BME280;7095;51.388;6.196;2022-08-19T07:40:45;53475.25;;;-145.32;100.00
14041;BME280;7095;51.388;6.196;2022-08-19T07:43:15;53467.28;;;-145.32;100.00
14041;BME280;7095;51.388;6.196;2022-08-19T07:45:49;53447.41;;;-145.32;100.00
14041;BME280;7095;51.388;6.196;2022-08-19T07:48:17;53441.44;;;-145.32;100.00
14041;BME280;7095;51.388;6.196;2022-08-19T07:50:46;53435.47;;;-145.32;100.00
14041;BME280;7095;51.388;6.196;2022-08-19T07:53:15;53419.59;;;-145.32;100.00
14041;BME280;7095;51.388;6.196;2022-08-19T07:55:44;53423.56;;;-145.32;100.00
14041;BME280;7095;51.388;6.196;2022-08-19T07:58:16;53459.34;;;-145.32;100.00
14041;BME280;7095;51.388;6.196;2022-08-19T08:00:47;53379.81;;;-145.32;100.00
14041;BME280;7095;51.388;6.196;2022-08-19T08:03:19;53385.78;;;-145.32;100.00
14041;BME280;7095;51.388;6.196;2022-08-19T08:05:48;53423.56;;;-145.32;100.00
14041;BME280;7095;51.388;6.196;2022-08-19T08:08:34;53411.63;;;-145.32;100.00
14041;BME280;7095;51.388;6.196;2022-08-19T08:11:21;53407.66;;;-145.32;100.00
14041;BME280;7095;51.388;6.196;2022-08-19T08:13:51;53383.78;;;-145.32;100.00
14041;BME280;7095;51.388;6.196;2022-08-19T08:16:34;53371.88;;;-145.32;100.00
14041;BME280;7095;51.388;6.196;2022-08-19T08:19:14;53381.81;;;-145.32;100.00
14041;BME280;7095;51.388;6.196;2022-08-19T08:21:54;53389.75;;;-145.32;100.00
14041;BME280;7095;51.388;6.196;2022-08-19T08:24:24;53391.75;;;-145.32;100.00
14041;BME280;7095;51.388;6.196;2022-08-19T08:26:55;53367.91;;;-145.32;100.00
14041;BME280;7095;51.388;6.196;2022-08-19T08:29:28;53379.81;;;-145.32;100.00
14041;BME280;7095;51.388;6.196;2022-08-19T08:32:01;53346.03;;;-145.32;100.00
14041;BME280;7095;51.388;6.196;2022-08-19T08:34:41;53330.13;;;-145.32;100.00
14041;BME280;7095;51.388;6.196;2022-08-19T08:37:09;53328.13;;;-145.32;100.00
14041;BME280;7095;51.388;6.196;2022-08-19T08:39:42;53322.16;;;-145.32;100.00
14041;BME280;7095;51.388;6.196;2022-08-19T08:42:16;53344.03;;;-145.32;100.00
14041;BME280;7095;51.388;6.196;2022-08-19T08:44:54;53308.25;;;-145.32;100.00
14041;BME280;7095;51.388;6.196;2022-08-19T08:47:33;53306.28;;;-145.32;100.00
14041;BME280;7095;51.388;6.196;2022-08-19T08:50:12;53306.28;;;-145.32;100.00
14041;BME280;7095;51.388;6.196;2022-08-19T08:52:45;53340.06;;;-145.32;100.00
14041;BME280;7095;51.388;6.196;2022-08-19T08:55:17;53304.28;;;-145.32;100.00
14041;BME280;7095;51.388;6.196;2022-08-19T08:57:52;53306.28;;;-145.32;100.00
14041;BME280;7095;51.388;6.196;2022-08-19T09:00:25;53296.31;;;-145.32;100.00
14041;BME280;7095;51.388;6.196;2022-08-19T09:02:55;53280.41;;;-145.32;100.00
14041;BME280;7095;51.388;6.196;2022-08-19T09:05:45;53292.34;;;-145.32;100.00
14041;BME280;7095;51.388;6.196;2022-08-19T09:08:25;53274.47;;;-145.32;100.00
14041;BME280;7095;51.388;6.196;2022-08-19T09:10:57;53274.47;;;-145.32;100.00
14041;BME280;7095;51.388;6.196;2022-08-19T09:13:31;53252.59;;;-145.32;100.00
14041;BME280;7095;51.388;6.196;2022-08-19T09:16:07;53290.38;;;-145.32;100.00
14041;BME280;7095;51.388;6.196;2022-08-19T09:18:40;53276.44;;;-145.32;100.00
14041;BME280;7095;51.388;6.196;2022-08-19T09:21:09;53268.50;;;-145.32;100.00
14041;BME280;7095;51.388;6.196;2022-08-19T09:23:38;53254.59;;;-145.32;100.00
14041;BME280;7095;51.388;6.196;2022-08-19T09:26:08;53272.47;;;-145.32;100.00
14041;BME280;7095;51.388;6.196;2022-08-19T09:28:37;53256.56;;;-145.32;100.00
14041;BME280;7095;51.388;6.196;2022-08-19T09:31:12;53276.44;;;-145.32;100.00
14041;BME280;7095;51.388;6.196;2022-08-19T09:33:41;53252.59;;;-145.32;100.00
14041;BME280;7095;51.388;6.196;2022-08-19T09:36:12;53264.53;;;-145.32;100.00
14041;BME280;7095;51.388;6.196;2022-08-19T09:39:00;53254.59;;;-145.32;100.00
14041;BME280;7095;51.388;6.196;2022-08-19T09:41:29;53240.66;;;-145.32;100.00
14041;BME280;7095;51.388;6.196;2022-08-19T09:44:00;53228.75;;;-145.32;100.00
14041;BME280;7095;51.388;6.196;2022-08-19T09:46:30;53252.59;;;-145.32;100.00
14041;BME280;7095;51.388;6.196;2022-08-19T09:49:00;53248.63;;;-145.32;100.00
14041;BME280;7095;51.388;6.196;2022-08-19T09:51:33;53248.63;;;-145.32;100.00
14041;BME280;7095;51.388;6.196;2022-08-19T09:54:04;53230.72;;;-145.32;100.00
14041;BME280;7095;51.388;6.196;2022-08-19T09:56:37;53250.59;;;-145.32;100.00
14041;BME280;7095;51.388;6.196;2022-08-19T09:59:08;53236.69;;;-145.32;100.00
14041;BME280;7095;51.388;6.196;2022-08-19T10:01:41;53188.97;;;-145.32;100.00
14041;BME280;7095;51.388;6.196;2022-08-19T10:04:12;53220.78;;;-145.32;100.00
14041;BME280;7095;51.388;6.196;2022-08-19T10:06:49;53210.84;;;-145.32;100.00
14041;BME280;7095;51.388;6.196;2022-08-19T10:09:21;53220.78;;;-145.32;100.00
14041;BME280;7095;51.388;6.196;2022-08-19T10:12:01;53244.63;;;-145.32;100.00
14041;BME280;7095;51.388;6.196;2022-08-19T10:14:32;53202.91;;;-145.32;100.00
14041;BME280;7095;51.388;6.196;2022-08-19T10:17:03;53188.97;;;-145.32;100.00
14041;BME280;7095;51.388;6.196;2022-08-19T10:19:45;53250.59;;;-145.32;100.00
14041;BME280;7095;51.388;6.196;2022-08-19T10:22:23;53224.75;;;-145.32;100.00
14041;BME280;7095;51.388;6.196;2022-08-19T10:24:52;53210.84;;;-145.32;100.00
14041;BME280;7095;51.388;6.196;2022-08-19T10:27:21;53212.84;;;-145.32;100.00
14041;BME280;7095;51.388;6.196;2022-08-19T10:29:52;53216.81;;;-145.32;100.00
14041;BME280;7095;51.388;6.196;2022-08-19T10:32:26;53218.81;;;-145.32;100.00
14041;BME280;7095;51.388;6.196;2022-08-19T10:35:01;53218.81;;;-145.32;100.00
14041;BME280;7095;51.388;6.196;2022-08-19T10:37:36;53220.78;;;-145.32;100.00
14041;BME280;7095;51.388;6.196;2022-08-19T10:40:23;53196.94;;;-145.32;100.00
14041;BME280;7095;51.388;6.196;2022-08-19T10:42:52;53212.84;;;-145.32;100.00
14041;BME280;7095;51.388;6.196;2022-08-19T10:45:21;53226.75;;;-145.32;100.00
14041;BME280;7095;51.388;6.196;2022-08-19T10:47:55;53228.75;;;-145.32;100.00
14041;BME280;7095;51.388;6.196;2022-08-19T10:50:24;53202.91;;;-145.32;100.00
14041;BME280;7095;51.388;6.196;2022-08-19T10:53:10;53198.91;;;-145.32;95.82
14041;BME280;7095;51.388;6.196;2022-08-19T10:55:39;53218.81;;;-145.32;92.71
14041;BME280;7095;51.388;6.196;2022-08-19T10:58:25;53187.00;;;-145.32;93.03
14041;BME280;7095;51.388;6.196;2022-08-19T11:00:55;53188.97;;;-145.32;91.27
14041;BME280;7095;51.388;6.196;2022-08-19T11:03:26;53204.88;;;-145.32;79.74
14041;BME280;7095;51.388;6.196;2022-08-19T11:05:58;53234.69;;;-145.32;74.82
14041;BME280;7095;51.388;6.196;2022-08-19T11:08:27;53224.75;;;-145.32;77.75
14041;BME280;7095;51.388;6.196;2022-08-19T11:10:59;53185.00;;;-145.32;80.38
14041;BME280;7095;51.388;6.196;2022-08-19T11:13:33;53196.94;;;-145.32;77.09
14041;BME280;7095;51.388;6.196;2022-08-19T11:16:06;53177.06;;;-145.32;68.11
14041;BME280;7095;51.388;6.196;2022-08-19T11:18:39;53244.63;;;-145.32;60.13
14041;BME280;7095;51.388;6.196;2022-08-19T11:21:10;53210.84;;;-145.32;60.43
14041;BME280;7095;51.388;6.196;2022-08-19T11:23:39;53200.91;;;-145.32;63.42
14041;BME280;7095;51.388;6.196;2022-08-19T11:26:08;53181.03;;;-145.32;64.59
14041;BME280;7095;51.388;6.196;2022-08-19T11:28:37;53187.00;;;-145.32;64.59
14041;BME280;7095;51.388;6.196;2022-08-19T11:31:10;53206.88;;;-145.32;60.75
14041;BME280;7095;51.388;6.196;2022-08-19T11:33:40;53202.91;;;-145.32;63.60
14041;BME280;7095;51.388;6.196;2022-08-19T11:36:14;53218.81;;;-145.32;64.42
14041;BME280;7095;51.388;6.196;2022-08-19T11:38:43;53198.91;;;-145.32;63.29
14041;BME280;7095;51.388;6.196;2022-08-19T11:41:11;53192.94;;;-145.32;64.19
14041;BME280;7095;51.388;6.196;2022-08-19T11:43:40;53177.06;;;-145.32;64.37
14041;BME280;7095;51.388;6.196;2022-08-19T11:46:11;53204.88;;;-145.32;62.86
14041;BME280;7095;51.388;6.196;2022-08-19T11:48:43;53200.91;;;-145.32;59.26
14041;BME280;7095;51.388;6.196;2022-08-19T11:51:14;53173.06;;;-145.32;55.58
14041;BME280;7095;51.388;6.196;2022-08-19T11:53:43;53204.88;;;-145.32;57.15
14041;BME280;7095;51.388;6.196;2022-08-19T11:56:12;53185.00;;;-145.32;56.53
14041;BME280;7095;51.388;6.196;2022-08-19T11:58:40;53169.09;;;-145.32;59.84
14041;BME280;7095;51.388;6.196;2022-08-19T12:01:10;53181.03;;;-145.32;56.58
14041;BME280;7095;51.388;6.196;2022-08-19T12:03:42;53208.84;;;-145.32;54.40
14041;BME280;7095;51.388;6.196;2022-08-19T12:06:12;53183.00;;;-145.32;55.18
14041;BME280;7095;51.388;6.196;2022-08-19T12:08:42;53177.06;;;-145.32;57.23
14041;BME280;7095;51.388;6.196;2022-08-19T12:11:13;53167.13;;;-145.32;55.70
14041;BME280;7095;51.388;6.196;2022-08-19T12:13:43;53153.19;;;-145.32;54.93
14041;BME280;7095;51.388;6.196;2022-08-19T12:16:15;53171.09;;;-145.32;54.51
14041;BME280;7095;51.388;6.196;2022-08-19T12:18:46;53190.97;;;-145.32;53.58
14041;BME280;7095;51.388;6.196;2022-08-19T12:21:16;53149.22;;;-145.32;53.65
14041;BME280;7095;51.388;6.196;2022-08-19T12:23:44;53137.28;;;-145.32;52.16
14041;BME280;7095;51.388;6.196;2022-08-19T12:26:14;53167.13;;;-145.32;52.41
14041;BME280;7095;51.388;6.196;2022-08-19T12:28:43;53123.38;;;-145.32;52.85
14041;BME280;7095;51.388;6.196;2022-08-19T12:31:11;53153.19;;;-145.32;51.70
14041;BME280;7095;51.388;6.196;2022-08-19T12:33:41;53157.19;;;-145.32;50.99
14041;BME280;7095;51.388;6.196;2022-08-19T12:36:13;53149.22;;;-145.32;51.73
14041;BME280;7095;51.388;6.196;2022-08-19T12:38:42;53232.72;;;-145.32;50.86
14041;BME280;7095;51.388;6.196;2022-08-19T12:41:14;53149.22;;;-145.32;50.39
14041;BME280;7095;51.388;6.196;2022-08-19T12:43:45;53153.19;;;-145.32;49.17
14041;BME280;7095;51.388;6.196;2022-08-19T12:46:16;53159.16;;;-145.32;49.17
14041;BME280;7095;51.388;6.196;2022-08-19T12:48:49;53135.31;;;-145.32;47.71
14041;BME280;7095;51.388;6.196;2022-08-19T12:51:22;53119.41;;;-145.32;47.11
14041;BME280;7095;51.388;6.196;2022-08-19T12:53:52;53137.28;;;-145.32;45.87
14041;BME280;7095;51.388;6.196;2022-08-19T12:56:21;53135.31;;;-145.32;43.87
14041;BME280;7095;51.388;6.196;2022-08-19T12:58:50;53117.41;;;-145.32;44.39
14041;BME280;7095;51.388;6.196;2022-08-19T13:01:20;53091.56;;;-145.32;43.70
14041;BME280;7095;51.388;6.196;2022-08-19T13:03:50;53089.59;;;-145.32;42.70
14041;BME280;7095;51.388;6.196;2022-08-19T13:06:20;53121.41;;;-145.32;43.22